This is the latest recevied weather packets stored in our database for station/object SP9MUF-14. If no packets are shown the sender has not sent any weather packets the latest 10 day(s).
| Time | Temp. | Humidity | Pressure | Rain* | Wind** | Luminosity | Snow |
|---|---|---|---|---|---|---|---|
| 1787391060 | 18.89° C | 68% | 1012.7 hPa | 0 mm | - | 450 W/m² | - |
| 1787390758 | 18.89° C | 69% | 1012.8 hPa | 0 mm | - | 203 W/m² | - |
| 1787390455 | 18.89° C | 69% | 1012.9 hPa | 0 mm | - | 600 W/m² | - |
| 1787389851 | 18.89° C | 74% | 1012.9 hPa | 0 mm | - | 190 W/m² | - |
| 1787389549 | 17.78° C | 72% | 1012.9 hPa | 0 mm | - | 648 W/m² | - |
| 1787388642 | 17.78° C | 75% | 1012.8 hPa | 0 mm | - | 632 W/m² | - |
| 1787388339 | 17.78° C | 77% | 1012.9 hPa | 0 mm | - | 285 W/m² | - |
| 1787388037 | 17.78° C | 76% | 1012.8 hPa | 0 mm | - | 138 W/m² | - |
| 1787387735 | 17.78° C | 76% | 1012.7 hPa | 0 mm | - | 303 W/m² | - |
| 1787387433 | 17.78° C | 76% | 1012.7 hPa | 0 mm | - | 274 W/m² | - |
| 1787387130 | 17.78° C | 76% | 1012.6 hPa | 0 mm | - | 223 W/m² | - |
| 1787386828 | 16.67° C | 78% | 1012.5 hPa | 0 mm | - | 276 W/m² | - |
| 1787386526 | 16.67° C | 76% | 1012.6 hPa | 0 mm | - | 213 W/m² | - |
| 1787386224 | 17.78° C | 78% | 1012.4 hPa | 0 mm | - | 156 W/m² | - |
| 1787385921 | 16.67° C | 77% | 1012.4 hPa | 0 mm | - | 261 W/m² | - |
| 1787385619 | 16.67° C | 79% | 1012.4 hPa | 0 mm | - | 389 W/m² | - |
| 1787385317 | 16.67° C | 80% | 1012.2 hPa | 0 mm | - | 199 W/m² | - |
| 1787385015 | 16.67° C | 81% | 1012.1 hPa | 0 mm | - | 141 W/m² | - |
| 1787384819 | 16.67° C | 81% | 1012.2 hPa | 0 mm | - | 142 W/m² | - |
| 1787384712 | 16.67° C | 81% | 1012.2 hPa | 0 mm | - | 142 W/m² | - |
| 1787384410 | 15.56° C | 83% | 1012.2 hPa | 0 mm | - | 144 W/m² | - |
| 1787384107 | 15.56° C | 85% | 1012.1 hPa | 0 mm | - | 102 W/m² | - |
| 1787383805 | 15.56° C | 86% | 1012.2 hPa | 0 mm | - | 115 W/m² | - |
| 1787383503 | 15.56° C | 87% | 1012.1 hPa | 0 mm | - | 108 W/m² | - |
| 1787383201 | 15.56° C | 87% | 1012.1 hPa | 0 mm | - | 66 W/m² | - |
* Rain latest hour (hover to see other rain measurements)
** Current wind speed in m/s (hover to see current wind gust speed)